sensor_id;sensor_type;location;lat;lon;timestamp;temperature;humidity
70593;DHT22;58294;42.988;20.338;2022-12-18T00:01:19;205.30;2252.80
70593;DHT22;58294;42.988;20.338;2022-12-18T00:03:46;205.20;2252.80
70593;DHT22;58294;42.988;20.338;2022-12-18T00:06:12;205.20;2252.80
70593;DHT22;58294;42.988;20.338;2022-12-18T00:08:39;205.20;2252.80
70593;DHT22;58294;42.988;20.338;2022-12-18T00:11:06;205.10;2252.80
70593;DHT22;58294;42.988;20.338;2022-12-18T00:13:32;205.10;2252.80
70593;DHT22;58294;42.988;20.338;2022-12-18T00:16:07;205.20;2252.80
70593;DHT22;58294;42.988;20.338;2022-12-18T00:18:34;205.20;2252.80
70593;DHT22;58294;42.988;20.338;2022-12-18T00:21:02;205.20;2252.80
70593;DHT22;58294;42.988;20.338;2022-12-18T00:23:29;205.20;2252.80
70593;DHT22;58294;42.988;20.338;2022-12-18T00:25:59;205.30;2252.80
70593;DHT22;58294;42.988;20.338;2022-12-18T00:28:25;205.30;2252.80
70593;DHT22;58294;42.988;20.338;2022-12-18T00:30:51;205.20;2252.80
70593;DHT22;58294;42.988;20.338;2022-12-18T00:33:17;205.10;2252.80
70593;DHT22;58294;42.988;20.338;2022-12-18T00:35:43;205.00;2252.80
70593;DHT22;58294;42.988;20.338;2022-12-18T00:38:09;205.00;2252.80
70593;DHT22;58294;42.988;20.338;2022-12-18T00:40:34;204.90;2252.80
70593;DHT22;58294;42.988;20.338;2022-12-18T00:43:00;204.80;2252.80
70593;DHT22;58294;42.988;20.338;2022-12-18T00:45:28;204.80;2252.80
70593;DHT22;58294;42.988;20.338;2022-12-18T00:47:55;204.80;2252.80
70593;DHT22;58294;42.988;20.338;2022-12-18T00:50:22;204.80;2252.80
70593;DHT22;58294;42.988;20.338;2022-12-18T00:52:49;204.90;2252.80
70593;DHT22;58294;42.988;20.338;2022-12-18T00:55:15;205.00;2252.80
70593;DHT22;58294;42.988;20.338;2022-12-18T00:57:41;205.00;2252.80
70593;DHT22;58294;42.988;20.338;2022-12-18T01:00:10;205.00;2252.80
70593;DHT22;58294;42.988;20.338;2022-12-18T01:02:37;205.00;2252.80
70593;DHT22;58294;42.988;20.338;2022-12-18T01:07:29;205.20;2252.80
70593;DHT22;58294;42.988;20.338;2022-12-18T01:09:55;205.20;2252.80
70593;DHT22;58294;42.988;20.338;2022-12-18T01:12:21;205.20;2252.80
70593;DHT22;58294;42.988;20.338;2022-12-18T01:14:47;205.10;2252.80
70593;DHT22;58294;42.988;20.338;2022-12-18T01:17:13;205.10;2252.80
70593;DHT22;58294;42.988;20.338;2022-12-18T01:19:38;205.00;2252.80
70593;DHT22;58294;42.988;20.338;2022-12-18T01:22:04;204.90;2252.80
70593;DHT22;58294;42.988;20.338;2022-12-18T01:24:30;205.00;2252.80
70593;DHT22;58294;42.988;20.338;2022-12-18T01:26:56;204.90;2252.80
70593;DHT22;58294;42.988;20.338;2022-12-18T01:29:23;204.90;2252.80
70593;DHT22;58294;42.988;20.338;2022-12-18T01:31:49;205.00;2252.80
70593;DHT22;58294;42.988;20.338;2022-12-18T01:34:14;205.00;2252.80
70593;DHT22;58294;42.988;20.338;2022-12-18T01:36:40;205.00;2252.80
70593;DHT22;58294;42.988;20.338;2022-12-18T01:39:10;205.00;2252.80
70593;DHT22;58294;42.988;20.338;2022-12-18T01:41:37;204.90;2252.80
70593;DHT22;58294;42.988;20.338;2022-12-18T01:45:00;204.80;2252.80
70593;DHT22;58294;42.988;20.338;2022-12-18T01:47:36;180.00;2252.80
70593;DHT22;58294;42.988;20.338;2022-12-18T01:52:56;179.90;2252.80
70593;DHT22;58294;42.988;20.338;2022-12-18T01:55:26;179.80;2252.80
70593;DHT22;58294;42.988;20.338;2022-12-18T01:57:55;179.90;2252.80
70593;DHT22;58294;42.988;20.338;2022-12-18T02:00:23;179.90;2252.80
70593;DHT22;58294;42.988;20.338;2022-12-18T02:02:49;180.00;2252.80
70593;DHT22;58294;42.988;20.338;2022-12-18T02:05:33;180.10;2252.80
70593;DHT22;58294;42.988;20.338;2022-12-18T02:13:44;180.10;2252.80
70593;DHT22;58294;42.988;20.338;2022-12-18T02:16:39;180.00;2252.80
70593;DHT22;58294;42.988;20.338;2022-12-18T02:19:21;179.90;2252.80
70593;DHT22;58294;42.988;20.338;2022-12-18T02:27:38;179.50;2252.80
70593;DHT22;58294;42.988;20.338;2022-12-18T02:30:06;179.50;2252.80
70593;DHT22;58294;42.988;20.338;2022-12-18T02:32:42;179.50;2252.80
70593;DHT22;58294;42.988;20.338;2022-12-18T02:35:22;179.40;2252.80
70593;DHT22;58294;42.988;20.338;2022-12-18T02:37:49;179.30;2252.80
70593;DHT22;58294;42.988;20.338;2022-12-18T02:40:19;179.30;2252.80
70593;DHT22;58294;42.988;20.338;2022-12-18T02:42:47;179.30;2252.80
70593;DHT22;58294;42.988;20.338;2022-12-18T02:45:13;179.50;2252.80
70593;DHT22;58294;42.988;20.338;2022-12-18T02:47:42;179.50;2252.80
70593;DHT22;58294;42.988;20.338;2022-12-18T02:50:31;179.50;2252.80
70593;DHT22;58294;42.988;20.338;2022-12-18T02:53:20;179.60;2252.80
70593;DHT22;58294;42.988;20.338;2022-12-18T02:56:12;179.60;2252.80
70593;DHT22;58294;42.988;20.338;2022-12-18T02:59:02;179.50;2252.80
70593;DHT22;58294;42.988;20.338;2022-12-18T03:04:20;179.30;2252.80
70593;DHT22;58294;42.988;20.338;2022-12-18T03:06:53;179.30;2252.80
70593;DHT22;58294;42.988;20.338;2022-12-18T03:09:25;154.50;2252.80
70593;DHT22;58294;42.988;20.338;2022-12-18T03:11:56;154.50;2252.80
70593;DHT22;58294;42.988;20.338;2022-12-18T03:14:43;154.50;2252.80
70593;DHT22;58294;42.988;20.338;2022-12-18T03:17:13;179.20;2252.80
70593;DHT22;58294;42.988;20.338;2022-12-18T03:19:40;154.50;2252.80
70593;DHT22;58294;42.988;20.338;2022-12-18T03:22:08;154.40;2252.80
70593;DHT22;58294;42.988;20.338;2022-12-18T03:24:35;154.50;2252.80
70593;DHT22;58294;42.988;20.338;2022-12-18T03:27:09;154.50;2252.80
70593;DHT22;58294;42.988;20.338;2022-12-18T03:29:47;179.20;2252.80
70593;DHT22;58294;42.988;20.338;2022-12-18T03:32:46;179.30;2252.80
70593;DHT22;58294;42.988;20.338;2022-12-18T03:35:18;179.40;2252.80
70593;DHT22;58294;42.988;20.338;2022-12-18T03:37:46;179.30;2252.80
70593;DHT22;58294;42.988;20.338;2022-12-18T03:40:12;179.30;2252.80
70593;DHT22;58294;42.988;20.338;2022-12-18T03:42:46;179.40;2252.80
70593;DHT22;58294;42.988;20.338;2022-12-18T03:45:26;179.40;2252.80
70593;DHT22;58294;42.988;20.338;2022-12-18T03:51:16;179.50;2252.80
70593;DHT22;58294;42.988;20.338;2022-12-18T03:53:52;179.50;2252.80
70593;DHT22;58294;42.988;20.338;2022-12-18T03:56:21;179.60;2252.80
70593;DHT22;58294;42.988;20.338;2022-12-18T03:58:50;179.70;2252.80
70593;DHT22;58294;42.988;20.338;2022-12-18T04:01:20;179.70;2252.80
70593;DHT22;58294;42.988;20.338;2022-12-18T04:03:47;179.70;2252.80
70593;DHT22;58294;42.988;20.338;2022-12-18T04:06:15;179.70;2252.80
70593;DHT22;58294;42.988;20.338;2022-12-18T04:08:42;179.70;2252.80
70593;DHT22;58294;42.988;20.338;2022-12-18T04:11:08;179.70;2252.80
70593;DHT22;58294;42.988;20.338;2022-12-18T04:13:36;179.70;2252.80
70593;DHT22;58294;42.988;20.338;2022-12-18T04:16:02;179.70;2252.80
70593;DHT22;58294;42.988;20.338;2022-12-18T04:18:28;179.60;2252.80
70593;DHT22;58294;42.988;20.338;2022-12-18T04:20:54;179.50;2252.80
70593;DHT22;58294;42.988;20.338;2022-12-18T04:23:20;179.40;2252.80
70593;DHT22;58294;42.988;20.338;2022-12-18T04:25:47;179.50;2252.80
70593;DHT22;58294;42.988;20.338;2022-12-18T04:28:13;179.40;2252.80
70593;DHT22;58294;42.988;20.338;2022-12-18T04:30:39;179.30;2252.80
70593;DHT22;58294;42.988;20.338;2022-12-18T04:33:09;179.20;2252.80
70593;DHT22;58294;42.988;20.338;2022-12-18T04:35:35;179.20;2252.80
70593;DHT22;58294;42.988;20.338;2022-12-18T04:38:01;154.50;2252.80
70593;DHT22;58294;42.988;20.338;2022-12-18T04:40:27;154.50;2252.80
70593;DHT22;58294;42.988;20.338;2022-12-18T04:42:52;154.50;2252.80
70593;DHT22;58294;42.988;20.338;2022-12-18T04:45:18;179.20;2252.80
70593;DHT22;58294;42.988;20.338;2022-12-18T04:47:44;179.30;2252.80
70593;DHT22;58294;42.988;20.338;2022-12-18T04:50:10;179.40;2252.80
70593;DHT22;58294;42.988;20.338;2022-12-18T04:52:35;179.40;2252.80
70593;DHT22;58294;42.988;20.338;2022-12-18T04:55:01;179.40;2252.80
70593;DHT22;58294;42.988;20.338;2022-12-18T04:57:27;179.40;2252.80
70593;DHT22;58294;42.988;20.338;2022-12-18T04:59:53;179.40;2252.80
70593;DHT22;58294;42.988;20.338;2022-12-18T05:02:19;179.50;2252.80
70593;DHT22;58294;42.988;20.338;2022-12-18T05:04:44;179.50;2252.80
70593;DHT22;58294;42.988;20.338;2022-12-18T05:07:10;179.50;2252.80
70593;DHT22;58294;42.988;20.338;2022-12-18T05:09:36;179.40;2252.80
70593;DHT22;58294;42.988;20.338;2022-12-18T05:12:02;179.40;2252.80
70593;DHT22;58294;42.988;20.338;2022-12-18T05:14:28;179.40;2252.80
70593;DHT22;58294;42.988;20.338;2022-12-18T05:16:54;179.30;2252.80
70593;DHT22;58294;42.988;20.338;2022-12-18T05:19:20;179.30;2252.80
70593;DHT22;58294;42.988;20.338;2022-12-18T05:21:46;179.20;2252.80
70593;DHT22;58294;42.988;20.338;2022-12-18T05:24:12;179.30;2252.80
70593;DHT22;58294;42.988;20.338;2022-12-18T05:26:38;179.40;2252.80
70593;DHT22;58294;42.988;20.338;2022-12-18T05:29:04;179.40;2252.80
70593;DHT22;58294;42.988;20.338;2022-12-18T05:31:29;179.40;2252.80
70593;DHT22;58294;42.988;20.338;2022-12-18T05:33:55;179.40;2252.80
70593;DHT22;58294;42.988;20.338;2022-12-18T05:36:21;179.50;2252.80
70593;DHT22;58294;42.988;20.338;2022-12-18T05:38:47;179.50;2252.80
70593;DHT22;58294;42.988;20.338;2022-12-18T05:41:13;179.40;2252.80
70593;DHT22;58294;42.988;20.338;2022-12-18T05:43:39;179.40;2252.80
70593;DHT22;58294;42.988;20.338;2022-12-18T05:46:07;179.40;2252.80
70593;DHT22;58294;42.988;20.338;2022-12-18T05:48:33;179.30;2252.80
70593;DHT22;58294;42.988;20.338;2022-12-18T05:51:08;179.20;2252.80
70593;DHT22;58294;42.988;20.338;2022-12-18T05:53:35;179.30;2252.80
70593;DHT22;58294;42.988;20.338;2022-12-18T05:56:03;179.40;2252.80
70593;DHT22;58294;42.988;20.338;2022-12-18T05:58:29;179.40;2252.80
70593;DHT22;58294;42.988;20.338;2022-12-18T06:00:55;179.50;2252.80
70593;DHT22;58294;42.988;20.338;2022-12-18T06:03:21;179.50;2252.80
70593;DHT22;58294;42.988;20.338;2022-12-18T06:05:47;179.60;2252.80
70593;DHT22;58294;42.988;20.338;2022-12-18T06:08:13;179.70;2252.80
70593;DHT22;58294;42.988;20.338;2022-12-18T06:10:39;179.70;2252.80
70593;DHT22;58294;42.988;20.338;2022-12-18T06:13:06;179.70;2252.80
70593;DHT22;58294;42.988;20.338;2022-12-18T06:15:35;179.70;2252.80
70593;DHT22;58294;42.988;20.338;2022-12-18T06:18:01;179.70;2252.80
70593;DHT22;58294;42.988;20.338;2022-12-18T06:20:30;179.70;2252.80
70593;DHT22;58294;42.988;20.338;2022-12-18T06:22:56;179.70;2252.80
70593;DHT22;58294;42.988;20.338;2022-12-18T06:25:21;179.70;2252.80
70593;DHT22;58294;42.988;20.338;2022-12-18T06:27:47;179.70;2252.80
70593;DHT22;58294;42.988;20.338;2022-12-18T06:30:13;179.70;2252.80
70593;DHT22;58294;42.988;20.338;2022-12-18T06:32:39;179.80;2252.80
70593;DHT22;58294;42.988;20.338;2022-12-18T06:35:05;179.70;2252.80
70593;DHT22;58294;42.988;20.338;2022-12-18T06:37:31;179.70;2252.80
70593;DHT22;58294;42.988;20.338;2022-12-18T06:39:57;179.70;2252.80
70593;DHT22;58294;42.988;20.338;2022-12-18T06:42:25;179.50;2252.80
70593;DHT22;58294;42.988;20.338;2022-12-18T06:44:50;179.40;2252.80
70593;DHT22;58294;42.988;20.338;2022-12-18T06:47:16;179.40;2252.80
70593;DHT22;58294;42.988;20.338;2022-12-18T06:49:43;179.40;2252.80
70593;DHT22;58294;42.988;20.338;2022-12-18T06:52:08;179.50;2252.80
70593;DHT22;58294;42.988;20.338;2022-12-18T06:54:34;179.50;2252.80
70593;DHT22;58294;42.988;20.338;2022-12-18T06:57:00;179.60;2252.80
70593;DHT22;58294;42.988;20.338;2022-12-18T06:59:26;179.60;2252.80
70593;DHT22;58294;42.988;20.338;2022-12-18T07:01:51;179.60;2252.80
70593;DHT22;58294;42.988;20.338;2022-12-18T07:04:17;179.70;2252.80
70593;DHT22;58294;42.988;20.338;2022-12-18T07:06:43;179.70;2252.80
70593;DHT22;58294;42.988;20.338;2022-12-18T07:09:09;179.70;2252.80
70593;DHT22;58294;42.988;20.338;2022-12-18T07:11:34;179.80;2252.80
70593;DHT22;58294;42.988;20.338;2022-12-18T07:14:00;179.80;2252.80
70593;DHT22;58294;42.988;20.338;2022-12-18T07:16:26;179.80;2252.80
70593;DHT22;58294;42.988;20.338;2022-12-18T07:18:57;179.90;2252.80
70593;DHT22;58294;42.988;20.338;2022-12-18T07:21:23;179.90;2252.80
70593;DHT22;58294;42.988;20.338;2022-12-18T07:23:49;179.90;2252.80
70593;DHT22;58294;42.988;20.338;2022-12-18T07:26:18;179.80;2252.80
70593;DHT22;58294;42.988;20.338;2022-12-18T07:28:45;179.90;2252.80
70593;DHT22;58294;42.988;20.338;2022-12-18T07:31:16;179.90;2252.80
70593;DHT22;58294;42.988;20.338;2022-12-18T07:33:42;180.00;2252.80
70593;DHT22;58294;42.988;20.338;2022-12-18T07:36:09;180.10;2252.80
70593;DHT22;58294;42.988;20.338;2022-12-18T07:38:35;180.00;2252.80
70593;DHT22;58294;42.988;20.338;2022-12-18T07:41:05;180.00;2252.80
70593;DHT22;58294;42.988;20.338;2022-12-18T07:43:32;180.00;2252.80
70593;DHT22;58294;42.988;20.338;2022-12-18T07:45:58;180.10;2252.80
70593;DHT22;58294;42.988;20.338;2022-12-18T07:48:24;180.10;2252.80
70593;DHT22;58294;42.988;20.338;2022-12-18T07:50:49;180.10;2252.80
70593;DHT22;58294;42.988;20.338;2022-12-18T07:53:15;180.10;2252.80
70593;DHT22;58294;42.988;20.338;2022-12-18T07:55:41;180.10;2252.80
70593;DHT22;58294;42.988;20.338;2022-12-18T07:58:08;180.00;2252.80
70593;DHT22;58294;42.988;20.338;2022-12-18T08:00:34;180.00;2252.80
70593;DHT22;58294;42.988;20.338;2022-12-18T08:03:01;180.00;2252.80
70593;DHT22;58294;42.988;20.338;2022-12-18T08:05:27;180.10;2252.80
70593;DHT22;58294;42.988;20.338;2022-12-18T08:07:53;204.80;2252.80
70593;DHT22;58294;42.988;20.338;2022-12-18T08:10:19;204.80;2252.80
70593;DHT22;58294;42.988;20.338;2022-12-18T08:12:49;204.80;2252.80
70593;DHT22;58294;42.988;20.338;2022-12-18T08:15:15;204.80;2252.80
70593;DHT22;58294;42.988;20.338;2022-12-18T08:17:40;204.80;2252.80
70593;DHT22;58294;42.988;20.338;2022-12-18T08:20:07;204.90;2252.80
70593;DHT22;58294;42.988;20.338;2022-12-18T08:22:34;205.00;2252.80
70593;DHT22;58294;42.988;20.338;2022-12-18T08:25:03;204.80;2252.80
70593;DHT22;58294;42.988;20.338;2022-12-18T08:27:30;204.80;2252.80
70593;DHT22;58294;42.988;20.338;2022-12-18T08:29:56;205.00;2252.80
70593;DHT22;58294;42.988;20.338;2022-12-18T08:32:22;204.80;2252.80
70593;DHT22;58294;42.988;20.338;2022-12-18T08:34:48;205.00;2252.80
70593;DHT22;58294;42.988;20.338;2022-12-18T08:37:14;204.80;2252.80
70593;DHT22;58294;42.988;20.338;2022-12-18T08:39:39;204.80;2252.80
70593;DHT22;58294;42.988;20.338;2022-12-18T08:42:05;204.80;2252.80
70593;DHT22;58294;42.988;20.338;2022-12-18T08:44:49;204.80;2252.80
70593;DHT22;58294;42.988;20.338;2022-12-18T08:47:15;204.80;2252.80
70593;DHT22;58294;42.988;20.338;2022-12-18T08:49:41;204.80;2252.80
70593;DHT22;58294;42.988;20.338;2022-12-18T08:52:07;180.10;2252.80
70593;DHT22;58294;42.988;20.338;2022-12-18T08:54:33;180.10;2252.80
70593;DHT22;58294;42.988;20.338;2022-12-18T08:56:58;204.80;2252.80
70593;DHT22;58294;42.988;20.338;2022-12-18T08:59:24;204.80;2252.80
70593;DHT22;58294;42.988;20.338;2022-12-18T09:01:53;180.10;2252.80
70593;DHT22;58294;42.988;20.338;2022-12-18T09:04:19;204.80;2252.80
70593;DHT22;58294;42.988;20.338;2022-12-18T09:06:45;180.10;2252.80
70593;DHT22;58294;42.988;20.338;2022-12-18T09:09:11;180.10;2252.80
70593;DHT22;58294;42.988;20.338;2022-12-18T09:11:37;180.10;2252.80
70593;DHT22;58294;42.988;20.338;2022-12-18T09:14:03;180.00;2252.80
70593;DHT22;58294;42.988;20.338;2022-12-18T09:16:29;180.00;2252.80
70593;DHT22;58294;42.988;20.338;2022-12-18T09:18:55;180.10;2252.80
70593;DHT22;58294;42.988;20.338;2022-12-18T09:21:27;180.00;2252.80
70593;DHT22;58294;42.988;20.338;2022-12-18T09:23:54;179.90;2252.80
70593;DHT22;58294;42.988;20.338;2022-12-18T09:26:24;179.80;2252.80
70593;DHT22;58294;42.988;20.338;2022-12-18T09:28:50;179.70;2252.80
70593;DHT22;58294;42.988;20.338;2022-12-18T09:31:18;179.60;2252.80
70593;DHT22;58294;42.988;20.338;2022-12-18T09:33:44;179.50;2252.80
70593;DHT22;58294;42.988;20.338;2022-12-18T09:36:14;179.20;2252.80
70593;DHT22;58294;42.988;20.338;2022-12-18T09:38:40;154.50;2252.80
70593;DHT22;58294;42.988;20.338;2022-12-18T09:41:15;154.30;2252.80
70593;DHT22;58294;42.988;20.338;2022-12-18T09:43:47;154.20;2252.80
70593;DHT22;58294;42.988;20.338;2022-12-18T09:46:22;154.20;2252.80
70593;DHT22;58294;42.988;20.338;2022-12-18T09:48:52;154.20;2252.80
70593;DHT22;58294;42.988;20.338;2022-12-18T09:51:27;154.20;2252.80
70593;DHT22;58294;42.988;20.338;2022-12-18T09:53:58;154.20;2252.80
70593;DHT22;58294;42.988;20.338;2022-12-18T09:56:28;154.40;2252.80
70593;DHT22;58294;42.988;20.338;2022-12-18T09:59:01;154.50;2252.80
70593;DHT22;58294;42.988;20.338;2022-12-18T10:01:28;179.20;2252.80
70593;DHT22;58294;42.988;20.338;2022-12-18T10:03:55;179.30;2252.80
70593;DHT22;58294;42.988;20.338;2022-12-18T10:09:16;179.50;2252.80
70593;DHT22;58294;42.988;20.338;2022-12-18T10:15:04;179.60;2252.80
70593;DHT22;58294;42.988;20.338;2022-12-18T10:17:44;179.70;2252.80
70593;DHT22;58294;42.988;20.338;2022-12-18T10:23:21;179.70;2252.80
70593;DHT22;58294;42.988;20.338;2022-12-18T10:26:33;179.60;2252.80
70593;DHT22;58294;42.988;20.338;2022-12-18T10:28:40;179.60;2252.80
70593;DHT22;58294;42.988;20.338;2022-12-18T10:31:12;179.50;2252.80
70593;DHT22;58294;42.988;20.338;2022-12-18T10:33:41;179.50;2252.80
70593;DHT22;58294;42.988;20.338;2022-12-18T10:36:07;179.50;2252.80
70593;DHT22;58294;42.988;20.338;2022-12-18T10:38:33;179.60;2252.80
70593;DHT22;58294;42.988;20.338;2022-12-18T10:41:06;179.70;2252.80
70593;DHT22;58294;42.988;20.338;2022-12-18T10:43:40;179.80;2252.80
70593;DHT22;58294;42.988;20.338;2022-12-18T10:51:31;179.80;2252.80
70593;DHT22;58294;42.988;20.338;2022-12-18T10:54:13;179.90;2252.80
70593;DHT22;58294;42.988;20.338;2022-12-18T10:56:40;180.00;2252.80
70593;DHT22;58294;42.988;20.338;2022-12-18T10:59:12;180.10;2252.80
70593;DHT22;58294;42.988;20.338;2022-12-18T11:01:52;180.00;2252.80
70593;DHT22;58294;42.988;20.338;2022-12-18T11:04:28;180.10;2252.80
70593;DHT22;58294;42.988;20.338;2022-12-18T11:07:04;180.00;2252.80
70593;DHT22;58294;42.988;20.338;2022-12-18T11:09:31;179.90;2252.80
70593;DHT22;58294;42.988;20.338;2022-12-18T11:12:23;179.80;2252.80
70593;DHT22;58294;42.988;20.338;2022-12-18T11:14:52;179.90;2252.80
70593;DHT22;58294;42.988;20.338;2022-12-18T11:17:30;180.00;2252.80
70593;DHT22;58294;42.988;20.338;2022-12-18T11:20:05;180.10;2252.80
70593;DHT22;58294;42.988;20.338;2022-12-18T11:22:34;180.10;2252.80
70593;DHT22;58294;42.988;20.338;2022-12-18T11:27:32;204.80;2252.80
70593;DHT22;58294;42.988;20.338;2022-12-18T11:32:54;204.80;2252.80
70593;DHT22;58294;42.988;20.338;2022-12-18T11:35:30;204.90;2252.80
70593;DHT22;58294;42.988;20.338;2022-12-18T11:38:04;204.80;2252.80
70593;DHT22;58294;42.988;20.338;2022-12-18T11:40:40;204.90;2252.80
70593;DHT22;58294;42.988;20.338;2022-12-18T11:43:16;205.00;2252.80
70593;DHT22;58294;42.988;20.338;2022-12-18T11:48:27;205.10;2252.80
70593;DHT22;58294;42.988;20.338;2022-12-18T11:50:57;205.00;2252.80
70593;DHT22;58294;42.988;20.338;2022-12-18T11:53:25;205.10;2252.80
70593;DHT22;58294;42.988;20.338;2022-12-18T12:01:48;205.00;2252.80
70593;DHT22;58294;42.988;20.338;2022-12-18T12:13:22;205.10;2252.80
70593;DHT22;58294;42.988;20.338;2022-12-18T12:19:02;205.20;2252.80
70593;DHT22;58294;42.988;20.338;2022-12-18T12:28:15;205.20;2252.80
70593;DHT22;58294;42.988;20.338;2022-12-18T12:31:07;205.20;2252.80
70593;DHT22;58294;42.988;20.338;2022-12-18T12:46:34;205.40;2252.80
70593;DHT22;58294;42.988;20.338;2022-12-18T12:49:03;205.30;2252.80
70593;DHT22;58294;42.988;20.338;2022-12-18T12:51:34;205.30;2252.80
70593;DHT22;58294;42.988;20.338;2022-12-18T12:54:04;205.30;2252.80
70593;DHT22;58294;42.988;20.338;2022-12-18T12:56:45;205.30;2252.80
70593;DHT22;58294;42.988;20.338;2022-12-18T12:59:41;205.30;2252.80
70593;DHT22;58294;42.988;20.338;2022-12-18T13:02:34;205.30;2252.80
70593;DHT22;58294;42.988;20.338;2022-12-18T13:07:57;205.30;2252.80
70593;DHT22;58294;42.988;20.338;2022-12-18T13:10:31;205.20;2252.80
70593;DHT22;58294;42.988;20.338;2022-12-18T13:13:27;205.10;2252.80
70593;DHT22;58294;42.988;20.338;2022-12-18T13:16:12;205.10;2252.80
70593;DHT22;58294;42.988;20.338;2022-12-18T13:18:49;205.00;2227.20
70593;DHT22;58294;42.988;20.338;2022-12-18T13:21:32;204.90;2252.80
70593;DHT22;58294;42.988;20.338;2022-12-18T15:30:11;179.60;2176.00
70593;DHT22;58294;42.988;20.338;2022-12-18T15:32:41;179.40;2252.80
70593;DHT22;58294;42.988;20.338;2022-12-18T15:35:23;179.20;2252.80
70593;DHT22;58294;42.988;20.338;2022-12-18T15:37:50;179.30;2252.80
70593;DHT22;58294;42.988;20.338;2022-12-18T15:40:21;179.30;2252.80
70593;DHT22;58294;42.988;20.338;2022-12-18T15:42:48;179.30;2252.80
70593;DHT22;58294;42.988;20.338;2022-12-18T15:45:34;179.30;2252.80
70593;DHT22;58294;42.988;20.338;2022-12-18T15:48:28;179.30;2252.80
70593;DHT22;58294;42.988;20.338;2022-12-18T15:50:56;179.20;2252.80
70593;DHT22;58294;42.988;20.338;2022-12-18T15:53:23;179.20;2252.80
70593;DHT22;58294;42.988;20.338;2022-12-18T15:55:49;179.20;2252.80
70593;DHT22;58294;42.988;20.338;2022-12-18T15:58:33;179.30;2252.80
70593;DHT22;58294;42.988;20.338;2022-12-18T16:01:00;179.30;2252.80
70593;DHT22;58294;42.988;20.338;2022-12-18T16:03:26;179.40;2201.60
70593;DHT22;58294;42.988;20.338;2022-12-18T16:05:52;179.30;2252.80
70593;DHT22;58294;42.988;20.338;2022-12-18T16:08:17;179.20;2252.80
70593;DHT22;58294;42.988;20.338;2022-12-18T16:10:43;179.30;2252.80
70593;DHT22;58294;42.988;20.338;2022-12-18T16:13:15;179.40;2252.80
70593;DHT22;58294;42.988;20.338;2022-12-18T17:33:58;179.30;2124.80
70593;DHT22;58294;42.988;20.338;2022-12-18T17:36:25;179.20;2252.80
70593;DHT22;58294;42.988;20.338;2022-12-18T17:38:57;154.40;2073.60
70593;DHT22;58294;42.988;20.338;2022-12-18T17:43:55;154.20;2176.00
70593;DHT22;58294;42.988;20.338;2022-12-18T17:46:21;154.10;2252.80
70593;DHT22;58294;42.988;20.338;2022-12-18T17:48:47;154.00;2124.80
70593;DHT22;58294;42.988;20.338;2022-12-18T17:51:14;153.90;2176.00
70593;DHT22;58294;42.988;20.338;2022-12-18T17:53:40;153.90;2227.20
70593;DHT22;58294;42.988;20.338;2022-12-18T17:56:07;153.80;2252.80
70593;DHT22;58294;42.988;20.338;2022-12-18T17:58:36;153.90;2201.60
70593;DHT22;58294;42.988;20.338;2022-12-18T18:01:03;153.80;2227.20
70593;DHT22;58294;42.988;20.338;2022-12-18T18:03:30;153.80;2201.60
70593;DHT22;58294;42.988;20.338;2022-12-18T18:06:01;153.80;2227.20
70593;DHT22;58294;42.988;20.338;2022-12-18T18:08:27;153.80;2252.80
70593;DHT22;58294;42.988;20.338;2022-12-18T18:10:53;153.90;2252.80
70593;DHT22;58294;42.988;20.338;2022-12-18T18:13:23;154.00;2252.80
70593;DHT22;58294;42.988;20.338;2022-12-18T18:16:09;154.10;2252.80
70593;DHT22;58294;42.988;20.338;2022-12-18T18:18:36;154.20;2252.80
70593;DHT22;58294;42.988;20.338;2022-12-18T18:21:08;154.10;2201.60
70593;DHT22;58294;42.988;20.338;2022-12-18T18:23:35;154.10;2252.80
70593;DHT22;58294;42.988;20.338;2022-12-18T18:26:05;154.10;2252.80
70593;DHT22;58294;42.988;20.338;2022-12-18T18:28:31;154.20;2252.80
70593;DHT22;58294;42.988;20.338;2022-12-18T18:30:57;154.20;2252.80
70593;DHT22;58294;42.988;20.338;2022-12-18T18:33:23;154.20;2252.80
70593;DHT22;58294;42.988;20.338;2022-12-18T18:35:49;154.20;2252.80
70593;DHT22;58294;42.988;20.338;2022-12-18T18:38:15;154.20;2252.80
70593;DHT22;58294;42.988;20.338;2022-12-18T18:40:40;154.20;2252.80
70593;DHT22;58294;42.988;20.338;2022-12-18T18:43:06;154.30;2252.80
70593;DHT22;58294;42.988;20.338;2022-12-18T18:45:34;154.40;2252.80
70593;DHT22;58294;42.988;20.338;2022-12-18T18:47:59;154.50;2252.80
70593;DHT22;58294;42.988;20.338;2022-12-18T18:50:25;154.50;2252.80
70593;DHT22;58294;42.988;20.338;2022-12-18T18:52:51;179.20;2252.80
70593;DHT22;58294;42.988;20.338;2022-12-18T18:55:17;179.20;2252.80
70593;DHT22;58294;42.988;20.338;2022-12-18T18:57:42;179.20;2252.80
70593;DHT22;58294;42.988;20.338;2022-12-18T19:00:09;179.30;2252.80
70593;DHT22;58294;42.988;20.338;2022-12-18T19:02:34;179.20;2252.80
70593;DHT22;58294;42.988;20.338;2022-12-18T19:05:00;179.20;2150.40
70593;DHT22;58294;42.988;20.338;2022-12-18T19:07:26;154.50;2124.80
70593;DHT22;58294;42.988;20.338;2022-12-18T19:09:52;154.30;2176.00
70593;DHT22;58294;42.988;20.338;2022-12-18T19:12:19;154.20;2176.00
70593;DHT22;58294;42.988;20.338;2022-12-18T19:15:04;154.20;2176.00
70593;DHT22;58294;42.988;20.338;2022-12-18T19:17:30;154.20;2252.80
70593;DHT22;58294;42.988;20.338;2022-12-18T19:19:56;154.20;2150.40
70593;DHT22;58294;42.988;20.338;2022-12-18T19:22:22;154.10;2201.60
70593;DHT22;58294;42.988;20.338;2022-12-18T19:24:48;154.00;2252.80
70593;DHT22;58294;42.988;20.338;2022-12-18T19:27:14;154.10;2252.80
70593;DHT22;58294;42.988;20.338;2022-12-18T19:29:40;154.10;2252.80
70593;DHT22;58294;42.988;20.338;2022-12-18T19:32:06;154.20;2252.80
70593;DHT22;58294;42.988;20.338;2022-12-18T19:34:32;154.20;2252.80
70593;DHT22;58294;42.988;20.338;2022-12-18T19:36:58;154.20;2201.60
70593;DHT22;58294;42.988;20.338;2022-12-18T19:39:27;154.20;2252.80
70593;DHT22;58294;42.988;20.338;2022-12-18T19:41:53;154.20;2252.80